Time;durP1;ratioP1;P1;durP2;ratioP2;P2;SDS_P1;SDS_P2;PMS_P1;PMS_P2;Temp;Humidity;BMP_temperature;BMP_pressure;BME280_temperature;BME280_humidity;BME280_pressure;Samples;Min_cycle;Max_cycle;Signal;HPM_P1;HPM_P2
2022/12/26 00:00:10;;;;;;;;;;;;;;;26.08;37.02;94444.78;4935525;29;8901;-63
2022/12/26 00:02:39;;;;;;;;;;;;;;;26.11;36.95;94449.28;4951699;28;7573;-62
2022/12/26 00:05:09;;;;;;;;;;;;;;;26.09;37.83;94443.53;4935916;28;8000;-62
2022/12/26 00:07:37;;;;;;;;;;;;;;;26.10;37.88;94455.28;4993072;28;7031;-62
2022/12/26 00:10:17;;;;;;;;;;;;;;;26.08;37.89;94466.81;4992579;28;7593;-63
2022/12/26 00:12:51;;;;;;;;;;;;;;;26.08;37.61;94466.81;5012371;28;9402;-63
2022/12/26 00:15:17;;;;;;;;;;;;;;;26.08;37.49;94471.56;5011457;28;8430;-63
2022/12/26 00:17:46;;;;;;;;;;;;;;;26.07;38.11;94470.06;5011230;28;9493;-61
2022/12/26 00:20:12;;;;;;;;;;;;;;;26.09;38.38;94464.81;4996600;28;7059;-63
2022/12/26 00:22:44;;;;;;;;;;;;;;;26.04;38.11;94471.09;4997049;28;7266;-62
2022/12/26 00:25:14;;;;;;;;;;;;;;;26.04;38.63;94471.09;5017191;28;6873;-63
2022/12/26 00:27:42;;;;;;;;;;;;;;;25.98;38.78;94468.38;4996490;28;7035;-62
2022/12/26 00:30:20;;;;;;;;;;;;;;;25.95;38.96;94469.41;4991791;28;7364;-63
2022/12/26 00:32:46;;;;;;;;;;;;;;;25.98;39.31;94479.41;4994664;28;9298;-62
2022/12/26 00:35:11;;;;;;;;;;;;;;;25.94;39.50;94481.69;5010578;28;7298;-63
2022/12/26 00:37:37;;;;;;;;;;;;;;;25.90;39.87;94491.50;4994571;28;7020;-62
2022/12/26 00:40:08;;;;;;;;;;;;;;;25.92;39.37;94498.00;4994861;28;7279;-62
2022/12/26 00:42:37;;;;;;;;;;;;;;;25.90;39.53;94497.72;5011146;28;8263;-62
2022/12/26 00:45:12;;;;;;;;;;;;;;;25.87;39.36;94493.25;5015130;28;8984;-62
2022/12/26 00:47:47;;;;;;;;;;;;;;;25.86;39.67;94494.50;4996035;28;9387;-62
2022/12/26 00:50:26;;;;;;;;;;;;;;;25.83;39.86;94490.03;5010581;28;7030;-62
2022/12/26 00:53:08;;;;;;;;;;;;;;;25.80;39.75;94479.25;5011369;28;9127;-62
2022/12/26 00:55:38;;;;;;;;;;;;;;;25.76;39.65;94493.31;5000336;28;7036;-63
2022/12/26 00:58:10;;;;;;;;;;;;;;;25.74;40.17;94479.31;5011318;28;9486;-62
2022/12/26 01:01:11;;;;;;;;;;;;;;;25.78;39.81;94471.50;5010742;28;7122;-62
2022/12/26 01:03:50;;;;;;;;;;;;;;;25.77;40.89;94488.56;4951075;28;8862;-62
2022/12/26 01:06:26;;;;;;;;;;;;;;;25.77;41.11;94477.53;4937326;28;7063;-63
2022/12/26 01:09:01;;;;;;;;;;;;;;;25.76;40.35;94476.03;4954145;28;9262;-62
2022/12/26 01:11:41;;;;;;;;;;;;;;;25.76;40.36;94482.28;4937058;28;9089;-62
2022/12/26 01:14:16;;;;;;;;;;;;;;;25.76;41.00;94476.78;4938036;28;7257;-62
2022/12/26 01:16:52;;;;;;;;;;;;;;;25.75;40.22;94483.53;4923607;29;7287;-62
2022/12/26 01:19:21;;;;;;;;;;;;;;;25.74;41.11;94473.78;4919805;29;7959;-62
2022/12/26 01:22:00;;;;;;;;;;;;;;;25.74;41.38;94482.06;4954162;28;7233;-62
2022/12/26 01:24:30;;;;;;;;;;;;;;;25.74;40.78;94497.81;4947634;28;7048;-62
2022/12/26 01:26:59;;;;;;;;;;;;;;;25.74;41.07;94484.81;4937772;28;7570;-63
2022/12/26 01:29:25;;;;;;;;;;;;;;;25.75;40.71;94494.56;4952679;28;7210;-61
2022/12/26 01:31:51;;;;;;;;;;;;;;;25.72;40.99;94495.59;4940692;28;7334;-62
2022/12/26 01:34:17;;;;;;;;;;;;;;;25.74;40.99;94487.56;4936254;28;10361;-61
2022/12/26 01:36:45;;;;;;;;;;;;;;;25.74;41.09;94487.56;4937729;28;7510;-62
2022/12/26 01:39:14;;;;;;;;;;;;;;;25.74;41.03;94495.06;4944527;28;7036;-61
2022/12/26 01:41:39;;;;;;;;;;;;;;;25.74;41.47;94495.06;5008865;28;7249;-62
2022/12/26 01:44:44;;;;;;;;;;;;;;;25.73;40.91;94483.31;4992652;28;6977;-62
2022/12/26 01:47:10;;;;;;;;;;;;;;;25.72;41.38;94484.56;5007830;28;9029;-62
2022/12/26 01:49:43;;;;;;;;;;;;;;;25.72;41.11;94483.81;4996998;28;7297;-61
2022/12/26 01:52:36;;;;;;;;;;;;;;;25.72;41.72;94481.06;4993925;28;8895;-62
2022/12/26 01:55:12;;;;;;;;;;;;;;;25.70;41.57;94486.34;5011912;28;9474;-63
2022/12/26 01:57:46;;;;;;;;;;;;;;;25.73;41.39;94479.81;4992979;28;7264;-62
2022/12/26 02:00:27;;;;;;;;;;;;;;;25.74;41.62;94495.06;4992589;28;8326;-62
2022/12/26 02:05:47;;;;;;;;;;;;;;;25.73;41.26;94490.84;4993899;28;10399;-62
2022/12/26 02:08:25;;;;;;;;;;;;;;;25.71;42.17;94494.09;4996703;28;7246;-62
2022/12/26 02:11:46;;;;;;;;;;;;;;;25.72;41.61;94500.34;4993805;28;7000;-62
2022/12/26 02:14:20;;;;;;;;;;;;;;;25.72;41.98;94495.59;4951114;28;7400;-63
2022/12/26 02:16:57;;;;;;;;;;;;;;;25.72;42.03;94495.59;4946034;28;9046;-63
2022/12/26 02:20:04;;;;;;;;;;;;;;;25.72;41.48;94497.59;4947654;28;7465;-63
2022/12/26 02:22:48;;;;;;;;;;;;;;;25.71;41.45;94487.84;4950458;28;7325;-61
2022/12/26 02:25:27;;;;;;;;;;;;;;;25.72;41.75;94490.09;4944064;28;7243;-63
2022/12/26 02:28:40;;;;;;;;;;;;;;;25.72;41.62;94501.09;4940056;28;8937;-62
2022/12/26 02:31:26;;;;;;;;;;;;;;;25.71;42.21;94499.59;4891824;29;8290;-62
2022/12/26 02:34:04;;;;;;;;;;;;;;;25.70;41.81;94489.84;4825381;29;9019;-63
2022/12/26 02:36:59;;;;;;;;;;;;;;;25.69;41.82;94487.59;4824864;29;8162;-63
2022/12/26 02:39:34;;;;;;;;;;;;;;;25.68;42.40;94486.84;4826002;29;7806;-62
2022/12/26 02:42:34;;;;;;;;;;;;;;;25.68;42.40;94486.84;4839747;29;7261;-63
2022/12/26 02:49:15;;;;;;;;;;;;;;;25.67;42.23;94477.06;4699022;30;7778;-63
2022/12/26 03:13:40;;;;;;;;;;;;;;;25.68;42.18;94489.59;4708508;30;7520;-62
2022/12/26 03:19:24;;;;;;;;;;;;;;;25.64;42.97;94504.91;4713661;30;7861;-61
2022/12/26 03:21:51;;;;;;;;;;;;;;;25.63;42.62;94501.41;4707211;30;7204;-62
2022/12/26 03:24:18;;;;;;;;;;;;;;;25.62;43.14;94496.41;4716748;30;7704;-61
2022/12/26 03:26:55;;;;;;;;;;;;;;;25.63;42.34;94506.16;4763649;30;7023;-61
2022/12/26 03:32:11;;;;;;;;;;;;;;;25.63;42.61;94508.91;4794272;29;8565;-62
2022/12/26 03:34:48;;;;;;;;;;;;;;;25.65;42.77;94517.41;4812517;29;9089;-62
2022/12/26 03:37:35;;;;;;;;;;;;;;;25.63;43.33;94515.16;4888636;29;7319;-61
2022/12/26 04:19:26;;;;;;;;;;;;;;;25.58;43.21;94556.53;4985977;28;7226;-63
2022/12/26 04:45:30;;;;;;;;;;;;;;;25.58;43.38;94537.97;4989290;28;7612;-61
2022/12/26 04:50:52;;;;;;;;;;;;;;;25.58;43.37;94524.19;4992982;28;9139;-62
2022/12/26 04:53:19;;;;;;;;;;;;;;;25.59;42.92;94525.69;5007213;28;7466;-63
2022/12/26 04:55:47;;;;;;;;;;;;;;;25.59;43.41;94522.94;4987285;28;7285;-63
2022/12/26 04:58:16;;;;;;;;;;;;;;;25.59;43.26;94517.44;5005763;28;7281;-62
2022/12/26 05:00:44;;;;;;;;;;;;;;;25.60;42.93;94518.19;4992517;28;9153;-62
2022/12/26 05:11:37;;;;;;;;;;;;;;;25.58;42.72;94517.97;4990348;28;9019;-62
2022/12/26 05:14:02;;;;;;;;;;;;;;;25.57;43.46;94517.19;5007149;28;7275;-61
2022/12/26 05:30:28;;;;;;;;;;;;;;;25.56;43.50;94490.91;4997759;28;7805;-61
2022/12/26 05:35:39;;;;;;;;;;;;;;;25.56;43.54;94499.16;4985494;28;7040;-62
2022/12/26 05:38:09;;;;;;;;;;;;;;;25.56;43.70;94509.44;5004047;28;9154;-61
2022/12/26 05:40:37;;;;;;;;;;;;;;;25.56;43.25;94510.19;5006634;28;7291;-61
2022/12/26 05:43:03;;;;;;;;;;;;;;;25.57;43.65;94506.19;4990433;28;7220;-63
2022/12/26 05:45:31;;;;;;;;;;;;;;;25.56;43.42;94501.16;4994113;28;9296;-62
2022/12/26 05:48:00;;;;;;;;;;;;;;;25.61;43.27;94501.16;5012703;28;8823;-62
2022/12/26 05:50:31;;;;;;;;;;;;;;;25.64;43.20;94513.94;5010899;28;7342;-62
2022/12/26 05:52:59;;;;;;;;;;;;;;;25.64;43.34;94518.69;4989735;28;7141;-62
2022/12/26 05:55:27;;;;;;;;;;;;;;;25.63;43.40;94514.41;5007596;28;7198;-62
2022/12/26 05:57:53;;;;;;;;;;;;;;;25.65;43.18;94514.66;5004222;28;7106;-62
2022/12/26 06:00:19;;;;;;;;;;;;;;;25.65;43.17;94507.16;5017307;28;7209;-62
2022/12/26 06:02:46;;;;;;;;;;;;;;;25.64;43.32;94513.16;5002889;28;7447;-62
2022/12/26 06:05:14;;;;;;;;;;;;;;;25.60;42.96;94504.44;4992475;28;9287;-62
2022/12/26 06:07:47;;;;;;;;;;;;;;;25.60;43.23;94505.16;5006649;28;7279;-62
2022/12/26 06:10:25;;;;;;;;;;;;;;;25.57;43.30;94506.19;5006595;28;7649;-62
2022/12/26 06:13:01;;;;;;;;;;;;;;;25.58;43.17;94506.94;4991181;28;7458;-61
2022/12/26 06:15:27;;;;;;;;;;;;;;;25.57;43.62;94508.94;4989869;28;7280;-60
2022/12/26 06:17:55;;;;;;;;;;;;;;;25.57;42.88;94492.41;4991052;28;7275;-62
2022/12/26 06:20:21;;;;;;;;;;;;;;;25.57;43.11;94492.41;5014310;28;8479;-61
2022/12/26 06:22:54;;;;;;;;;;;;;;;25.58;43.73;94495.94;5010466;28;9130;-62
2022/12/26 06:25:22;;;;;;;;;;;;;;;25.55;43.15;94492.19;5003425;28;7351;-62
2022/12/26 06:27:55;;;;;;;;;;;;;;;25.56;42.54;94487.41;5008662;28;9194;-62
2022/12/26 06:30:27;;;;;;;;;;;;;;;25.56;43.68;94493.66;5007749;28;7182;-63
2022/12/26 06:32:52;;;;;;;;;;;;;;;25.53;43.45;94489.19;5000108;28;8852;-61
2022/12/26 06:35:21;;;;;;;;;;;;;;;25.55;43.38;94497.69;5005189;28;9377;-63
2022/12/26 06:37:47;;;;;;;;;;;;;;;25.52;43.09;94493.19;4993331;28;7587;-62
2022/12/26 06:40:37;;;;;;;;;;;;;;;25.52;43.64;94487.66;5008901;28;8311;-62
2022/12/26 06:43:09;;;;;;;;;;;;;;;25.55;43.48;94486.66;5000984;28;7364;-62
2022/12/26 06:45:35;;;;;;;;;;;;;;;25.56;43.38;94477.13;4994537;28;9008;-62
2022/12/26 06:48:05;;;;;;;;;;;;;;;25.56;43.26;94476.38;5014873;28;7266;-62
2022/12/26 06:50:30;;;;;;;;;;;;;;;25.56;43.34;94474.38;4987146;28;7551;-63
2022/12/26 06:52:56;;;;;;;;;;;;;;;25.58;43.69;94471.88;5006868;28;8863;-61
2022/12/26 06:55:22;;;;;;;;;;;;;;;25.58;43.40;94474.63;4997477;28;7662;-62
2022/12/26 06:57:53;;;;;;;;;;;;;;;25.57;43.41;94467.63;4993607;28;8005;-62
2022/12/26 07:00:19;;;;;;;;;;;;;;;25.56;43.33;94468.88;5003829;28;7025;-61
2022/12/26 07:02:48;;;;;;;;;;;;;;;25.54;43.23;94463.13;4992784;28;9001;-61
2022/12/26 07:05:16;;;;;;;;;;;;;;;25.55;43.20;94467.38;5007310;28;8592;-62
2022/12/26 07:07:42;;;;;;;;;;;;;;;25.53;43.54;94469.91;5006048;28;9456;-62
2022/12/26 07:10:10;;;;;;;;;;;;;;;25.56;43.87;94473.63;5003668;28;7046;-63
2022/12/26 07:12:44;;;;;;;;;;;;;;;25.57;43.55;94478.66;4997464;28;9015;-63
2022/12/26 07:15:14;;;;;;;;;;;;;;;25.58;43.59;94473.88;4991554;28;7147;-62
2022/12/26 07:17:41;;;;;;;;;;;;;;;25.58;43.08;94490.41;5005921;28;9451;-62
2022/12/26 07:20:11;;;;;;;;;;;;;;;25.57;43.61;94492.41;5002858;28;7454;-62
2022/12/26 07:22:37;;;;;;;;;;;;;;;25.59;43.66;94489.16;4989792;28;9489;-62
2022/12/26 07:25:04;;;;;;;;;;;;;;;25.61;43.69;94483.88;4989441;28;7702;-62
2022/12/26 07:27:37;;;;;;;;;;;;;;;25.61;43.33;94481.88;5005183;28;7058;-63
2022/12/26 07:30:03;;;;;;;;;;;;;;;25.60;43.06;94491.38;5009937;28;6980;-63
2022/12/26 07:32:31;;;;;;;;;;;;;;;25.61;43.12;94492.13;4997913;28;7610;-63
2022/12/26 07:34:59;;;;;;;;;;;;;;;25.59;42.73;94500.16;4991309;28;7336;-63
2022/12/26 07:37:25;;;;;;;;;;;;;;;25.59;43.74;94492.66;4991342;28;9414;-63
2022/12/26 07:39:51;;;;;;;;;;;;;;;25.59;43.26;94500.16;5004165;28;7163;-61
2022/12/26 07:42:21;;;;;;;;;;;;;;;25.58;43.27;94504.91;4997832;28;6956;-62
2022/12/26 07:44:47;;;;;;;;;;;;;;;25.59;43.57;94497.41;4987862;28;7644;-61
2022/12/26 07:47:13;;;;;;;;;;;;;;;25.59;43.43;94492.66;4985728;28;7201;-62
2022/12/26 07:49:39;;;;;;;;;;;;;;;25.59;43.82;94489.16;4997942;28;7041;-63
2022/12/26 07:52:07;;;;;;;;;;;;;;;25.63;43.73;94489.63;5002278;28;7274;-63
2022/12/26 07:54:33;;;;;;;;;;;;;;;25.63;43.63;94482.13;5003125;28;9050;-63
2022/12/26 07:56:59;;;;;;;;;;;;;;;25.66;43.45;94483.84;4990957;28;9278;-62
2022/12/26 07:59:25;;;;;;;;;;;;;;;25.69;43.34;94480.06;4982043;28;7026;-62
2022/12/26 08:01:56;;;;;;;;;;;;;;;25.73;42.66;94494.31;4999462;28;7024;-62
2022/12/26 08:04:33;;;;;;;;;;;;;;;25.73;42.99;94497.06;4985855;28;7165;-63
2022/12/26 08:07:01;;;;;;;;;;;;;;;25.75;43.20;94494.56;5011468;28;7299;-62
2022/12/26 08:09:28;;;;;;;;;;;;;;;25.75;42.89;94502.81;5007631;28;8501;-62
2022/12/26 08:11:54;;;;;;;;;;;;;;;25.79;42.90;94502.56;5008898;28;7199;-62
2022/12/26 08:14:20;;;;;;;;;;;;;;;25.80;42.89;94504.81;5008561;28;8967;-61
2022/12/26 08:16:46;;;;;;;;;;;;;;;25.83;43.26;94517.56;5008916;28;7021;-62
2022/12/26 08:19:12;;;;;;;;;;;;;;;25.85;43.48;94526.09;4988832;28;7141;-62
2022/12/26 08:21:38;;;;;;;;;;;;;;;25.86;43.41;94521.31;4991190;28;7089;-63
2022/12/26 08:24:14;;;;;;;;;;;;;;;25.89;43.48;94526.56;5005208;28;7065;-62
2022/12/26 08:26:41;;;;;;;;;;;;;;;25.91;43.35;94526.78;5009613;28;7142;-62
2022/12/26 08:29:10;;;;;;;;;;;;;;;25.90;42.84;94528.03;5009388;28;9047;-62
2022/12/26 08:31:36;;;;;;;;;;;;;;;25.92;43.35;94520.03;4993734;28;7316;-62
2022/12/26 08:34:02;;;;;;;;;;;;;;;25.93;43.28;94516.00;4992899;28;7033;-61
2022/12/26 08:36:29;;;;;;;;;;;;;;;25.94;43.36;94517.50;5012715;28;8969;-62
2022/12/26 08:39:00;;;;;;;;;;;;;;;25.94;42.96;94516.75;4992047;28;7570;-63
2022/12/26 08:41:30;;;;;;;;;;;;;;;25.93;42.59;94529.03;5005695;28;7249;-61
2022/12/26 08:44:05;;;;;;;;;;;;;;;25.95;42.55;94526.50;4990872;28;7053;-61
2022/12/26 08:46:43;;;;;;;;;;;;;;;25.96;42.53;94531.53;5008262;28;7234;-62
2022/12/26 08:49:09;;;;;;;;;;;;;;;25.98;43.11;94525.50;5007700;28;10270;-61
2022/12/26 08:51:35;;;;;;;;;;;;;;;25.99;43.70;94530.50;4996961;28;7077;-62
2022/12/26 08:54:01;;;;;;;;;;;;;;;25.97;43.03;94530.25;4991533;28;7242;-61
2022/12/26 08:56:27;;;;;;;;;;;;;;;25.98;43.72;94533.78;4994331;28;7269;-62
2022/12/26 08:58:57;;;;;;;;;;;;;;;25.97;43.55;94522.00;4986285;28;7128;-62
2022/12/26 09:01:26;;;;;;;;;;;;;;;26.01;43.93;94514.19;4985821;28;7496;-61
2022/12/26 09:03:55;;;;;;;;;;;;;;;26.00;43.24;94515.47;4987734;28;7180;-62
2022/12/26 09:06:34;;;;;;;;;;;;;;;26.00;44.16;94520.97;5004056;28;7038;-62
2022/12/26 09:09:17;;;;;;;;;;;;;;;26.00;43.72;94520.22;4989907;28;7112;-62
2022/12/26 09:11:49;;;;;;;;;;;;;;;25.99;43.10;94524.97;4985018;28;7056;-61
2022/12/26 09:14:21;;;;;;;;;;;;;;;25.97;43.51;94529.50;5011772;28;7032;-62
2022/12/26 09:16:55;;;;;;;;;;;;;;;25.97;43.50;94518.47;5002049;28;8525;-61
2022/12/26 09:19:31;;;;;;;;;;;;;;;25.99;43.57;94524.97;4988448;28;9687;-61
2022/12/26 09:24:52;;;;;;;;;;;;;;;26.01;44.10;94527.97;4945197;28;7113;-63
2022/12/26 09:27:29;;;;;;;;;;;;;;;26.06;43.54;94531.97;4945240;28;7421;-62
2022/12/26 09:29:57;;;;;;;;;;;;;;;26.07;44.40;94536.22;4937348;28;10056;-63
2022/12/26 09:32:22;;;;;;;;;;;;;;;26.05;44.50;94534.00;4926519;28;7036;-63
2022/12/26 09:34:48;;;;;;;;;;;;;;;26.06;44.48;94543.00;4930387;28;7321;-63
2022/12/26 09:37:14;;;;;;;;;;;;;;;26.05;44.31;94544.25;4934898;28;6978;-63
2022/12/26 09:39:44;;;;;;;;;;;;;;;26.01;43.78;94550.03;4949544;28;7171;-62
2022/12/26 09:42:31;;;;;;;;;;;;;;;26.03;44.47;94546.78;4930605;28;8963;-63
2022/12/26 09:45:41;;;;;;;;;;;;;;;26.05;44.05;94552.53;4943006;28;6975;-63
2022/12/26 09:48:53;;;;;;;;;;;;;;;26.07;44.22;94552.78;4939087;28;7005;-62
2022/12/26 09:51:33;;;;;;;;;;;;;;;26.07;44.24;94564.56;4917468;29;9239;-62
2022/12/26 09:54:30;;;;;;;;;;;;;;;26.06;43.73;94571.31;4917899;29;7003;-63
2022/12/26 09:57:17;;;;;;;;;;;;;;;26.05;44.52;94572.59;4928934;28;7048;-64
2022/12/26 10:00:03;;;;;;;;;;;;;;;26.05;43.81;94575.34;4929694;29;9469;-63
2022/12/26 10:02:41;;;;;;;;;;;;;;;26.02;44.24;94568.06;4950008;28;7283;-62
2022/12/26 10:05:12;;;;;;;;;;;;;;;26.05;44.41;94580.84;4953542;28;8730;-64
2022/12/26 10:07:48;;;;;;;;;;;;;;;26.04;44.07;94575.81;4954997;28;8310;-62
2022/12/26 10:10:56;;;;;;;;;;;;;;;26.05;44.54;94582.84;4954350;28;7045;-63
2022/12/26 10:13:37;;;;;;;;;;;;;;;26.05;44.15;94589.13;4960125;28;9611;-62
2022/12/26 10:16:39;;;;;;;;;;;;;;;26.04;43.84;94598.63;4951748;28;6861;-62
2022/12/26 10:19:39;;;;;;;;;;;;;;;26.03;44.23;94591.59;4892773;29;7516;-64
2022/12/26 10:22:33;;;;;;;;;;;;;;;26.01;44.07;94588.63;4914959;28;8583;-63
2022/12/26 10:25:08;;;;;;;;;;;;;;;25.99;44.29;94588.38;4921901;28;9049;-62
2022/12/26 10:27:40;;;;;;;;;;;;;;;25.98;44.58;94586.91;4934149;28;7048;-62
2022/12/26 10:30:36;;;;;;;;;;;;;;;26.00;44.86;94583.63;4935580;28;8936;-62
2022/12/26 10:33:17;;;;;;;;;;;;;;;26.00;44.27;94580.88;4916181;29;7038;-60
2022/12/26 10:35:45;;;;;;;;;;;;;;;25.98;44.17;94578.63;4918245;28;8253;-63
2022/12/26 10:39:07;;;;;;;;;;;;;;;26.01;44.17;94593.41;4932358;29;7054;-63
2022/12/26 10:41:48;;;;;;;;;;;;;;;25.97;44.15;94598.41;4883325;29;7276;-62
2022/12/26 10:44:46;;;;;;;;;;;;;;;26.01;44.65;94599.63;4888532;29;7292;-63
2022/12/26 10:47:36;;;;;;;;;;;;;;;25.99;44.61;94613.19;4831913;29;9897;-61
2022/12/26 10:50:30;;;;;;;;;;;;;;;25.97;44.13;94617.69;4830757;29;7623;-63
2022/12/26 10:53:16;;;;;;;;;;;;;;;25.94;44.49;94622.25;4865147;29;9405;-63
2022/12/26 10:55:44;;;;;;;;;;;;;;;25.95;44.51;94620.97;4912814;29;9083;-64
2022/12/26 10:58:19;;;;;;;;;;;;;;;25.94;45.44;94627.75;4892340;29;7830;-64
2022/12/26 11:00:50;;;;;;;;;;;;;;;25.92;45.38;94646.06;4893351;29;9364;-64
2022/12/26 11:03:56;;;;;;;;;;;;;;;25.91;45.95;94656.31;4896269;29;7650;-63
2022/12/26 11:06:39;;;;;;;;;;;;;;;25.92;45.82;94657.06;4801761;29;9033;-62
2022/12/26 11:09:26;;;;;;;;;;;;;;;25.92;46.35;94671.59;4822389;29;9019;-64
2022/12/26 11:12:00;;;;;;;;;;;;;;;25.92;46.02;94668.84;4802365;29;9501;-62
2022/12/26 11:14:27;;;;;;;;;;;;;;;25.93;46.75;94673.09;4812444;29;7105;-63
2022/12/26 11:16:59;;;;;;;;;;;;;;;25.95;46.92;94676.09;4840754;29;8985;-63
2022/12/26 11:19:29;;;;;;;;;;;;;;;25.96;46.08;94676.84;4838842;29;7029;-63
2022/12/26 11:22:13;;;;;;;;;;;;;;;25.96;46.24;94676.84;4841673;29;7539;-64
2022/12/26 11:24:42;;;;;;;;;;;;;;;25.98;46.60;94677.84;4893908;29;7455;-63
2022/12/26 11:27:51;;;;;;;;;;;;;;;26.01;45.87;94689.88;4878852;29;7472;-63
2022/12/26 11:30:40;;;;;;;;;;;;;;;26.04;46.43;94675.06;4837516;29;8846;-63
2022/12/26 11:33:08;;;;;;;;;;;;;;;26.04;45.42;94656.53;4821852;29;9831;-63
2022/12/26 11:35:36;;;;;;;;;;;;;;;26.01;45.61;94660.28;4837381;29;7929;-62
2022/12/26 11:38:06;;;;;;;;;;;;;;;25.98;46.06;94666.81;4819575;29;9051;-61
2022/12/26 11:40:37;;;;;;;;;;;;;;;25.97;46.39;94659.03;4833427;29;8653;-62
2022/12/26 11:43:19;;;;;;;;;;;;;;;25.97;45.79;94664.56;4870713;29;8286;-62
2022/12/26 11:45:49;;;;;;;;;;;;;;;25.97;46.22;94653.53;4911294;29;7411;-63
2022/12/26 11:48:22;;;;;;;;;;;;;;;25.98;45.94;94650.28;4889960;29;8919;-62
2022/12/26 11:50:59;;;;;;;;;;;;;;;26.00;45.22;94652.53;4907779;29;9529;-62
2022/12/26 11:54:10;;;;;;;;;;;;;;;25.99;44.89;94651.03;4914192;29;9036;-63
2022/12/26 11:57:08;;;;;;;;;;;;;;;26.03;44.33;94648.75;4910953;29;7288;-63
2022/12/26 12:00:17;;;;;;;;;;;;;;;26.02;45.05;94650.00;4909886;29;7274;-61
2022/12/26 12:03:27;;;;;;;;;;;;;;;25.98;45.16;94649.53;4908588;29;7227;-63
2022/12/26 12:06:20;;;;;;;;;;;;;;;25.99;44.73;94649.00;4928630;29;7023;-61
2022/12/26 12:08:59;;;;;;;;;;;;;;;25.94;44.19;94652.56;4930446;29;7018;-63
2022/12/26 12:11:54;;;;;;;;;;;;;;;25.95;45.04;94662.31;4918334;29;7237;-63
2022/12/26 12:15:12;;;;;;;;;;;;;;;25.94;45.36;94654.56;4927707;29;7217;-62
2022/12/26 12:18:01;;;;;;;;;;;;;;;25.91;44.62;94647.28;4926758;29;7002;-63
2022/12/26 12:21:06;;;;;;;;;;;;;;;25.90;45.52;94649.28;4915827;29;7238;-63
2022/12/26 12:24:04;;;;;;;;;;;;;;;25.89;45.34;94647.06;4927551;29;9843;-63
2022/12/26 12:26:43;;;;;;;;;;;;;;;25.86;45.23;94646.06;4938015;29;7296;-63
2022/12/26 12:30:01;;;;;;;;;;;;;;;25.87;44.69;94647.56;4930496;29;7334;-63
2022/12/26 12:33:16;;;;;;;;;;;;;;;25.86;44.76;94661.84;4855332;29;7459;-63
2022/12/26 12:36:14;;;;;;;;;;;;;;;25.85;44.72;94652.84;4814095;29;7022;-62
2022/12/26 12:39:10;;;;;;;;;;;;;;;25.86;45.58;94651.56;4815510;29;8247;-60
2022/12/26 12:42:13;;;;;;;;;;;;;;;25.89;45.50;94653.31;4814435;29;8859;-63
2022/12/26 12:45:16;;;;;;;;;;;;;;;25.90;44.99;94649.28;4832740;29;9363;-64
2022/12/26 12:48:07;;;;;;;;;;;;;;;25.90;45.12;94645.81;4822176;29;7315;-62
2022/12/26 12:51:15;;;;;;;;;;;;;;;25.91;44.56;94639.03;4821686;29;7681;-64
2022/12/26 12:54:19;;;;;;;;;;;;;;;25.87;44.77;94633.78;4790682;29;7073;-63
2022/12/26 12:57:04;;;;;;;;;;;;;;;25.88;45.39;94643.53;4803794;29;9142;-63
2022/12/26 13:00:11;;;;;;;;;;;;;;;25.89;44.65;94647.06;4805726;29;9231;-63
2022/12/26 13:02:54;;;;;;;;;;;;;;;25.88;45.24;94640.78;4801601;29;7111;-62
2022/12/26 13:05:42;;;;;;;;;;;;;;;25.87;44.86;94655.84;4783568;29;9319;-60
2022/12/26 13:08:47;;;;;;;;;;;;;;;25.90;44.93;94654.06;4837284;29;7469;-63
2022/12/26 13:11:18;;;;;;;;;;;;;;;25.92;44.87;94648.81;4802776;29;9766;-63
2022/12/26 13:14:23;;;;;;;;;;;;;;;25.88;45.59;94656.59;4802573;29;7206;-64
2022/12/26 13:17:14;;;;;;;;;;;;;;;25.89;45.28;94647.06;4805988;29;9351;-62
2022/12/26 13:20:08;;;;;;;;;;;;;;;25.91;44.56;94644.53;4797715;29;9282;-64
2022/12/26 13:25:47;;;;;;;;;;;;;;;25.89;44.96;94647.06;4816509;29;7259;-63
2022/12/26 13:28:26;;;;;;;;;;;;;;;25.90;44.78;94652.03;4806156;29;7903;-62
2022/12/26 13:30:54;;;;;;;;;;;;;;;25.90;45.14;94643.78;4851289;29;7237;-63
2022/12/26 13:33:26;;;;;;;;;;;;;;;25.91;44.81;94636.28;4876577;29;7035;-63
2022/12/26 13:35:59;;;;;;;;;;;;;;;25.90;44.48;94632.75;4872741;29;7001;-63
2022/12/26 13:38:52;;;;;;;;;;;;;;;25.97;44.58;94640.50;4872167;29;7740;-63
2022/12/26 13:44:17;;;;;;;;;;;;;;;25.98;44.69;94639.25;4881213;29;7275;-63
2022/12/26 13:46:47;;;;;;;;;;;;;;;26.00;44.79;94641.50;4936854;28;7030;-62
2022/12/26 13:49:28;;;;;;;;;;;;;;;26.01;44.87;94640.97;4942839;28;7210;-63
2022/12/26 13:52:18;;;;;;;;;;;;;;;26.02;44.04;94650.00;4934300;28;10133;-62
2022/12/26 13:54:47;;;;;;;;;;;;;;;26.02;44.76;94645.25;4922611;29;7107;-63
2022/12/26 13:57:37;;;;;;;;;;;;;;;25.99;44.34;94638.00;4939959;28;9711;-62
2022/12/26 14:00:39;;;;;;;;;;;;;;;25.99;43.95;94640.75;4978663;28;9265;-63
2022/12/26 14:03:37;;;;;;;;;;;;;;;26.00;43.88;94636.75;4991796;28;8860;-62
2022/12/26 14:06:39;;;;;;;;;;;;;;;26.00;44.49;94647.00;5007857;28;9338;-63
2022/12/26 14:09:28;;;;;;;;;;;;;;;25.99;44.69;94640.75;5008611;28;7389;-63
2022/12/26 14:12:02;;;;;;;;;;;;;;;26.00;44.13;94663.56;4987969;28;6989;-63
2022/12/26 14:15:21;;;;;;;;;;;;;;;26.00;44.68;94642.25;4994117;28;7397;-61
2022/12/26 14:18:13;;;;;;;;;;;;;;;25.96;44.12;94639.03;4990446;28;8249;-64
2022/12/26 14:20:48;;;;;;;;;;;;;;;25.97;44.50;94656.28;5004608;28;7404;-63
2022/12/26 14:23:14;;;;;;;;;;;;;;;25.96;44.47;94652.81;4994771;28;8504;-63
2022/12/26 14:25:49;;;;;;;;;;;;;;;25.96;44.32;94646.53;5006781;28;9381;-62
2022/12/26 14:28:36;;;;;;;;;;;;;;;25.99;44.60;94648.28;4992998;28;7032;-63
2022/12/26 14:31:30;;;;;;;;;;;;;;;26.00;44.20;94647.78;4993187;28;9803;-63
2022/12/26 14:34:10;;;;;;;;;;;;;;;25.99;45.22;94638.00;5008478;28;7428;-63
2022/12/26 14:37:03;;;;;;;;;;;;;;;26.01;45.20;94640.25;4991884;28;9451;-64
2022/12/26 14:39:55;;;;;;;;;;;;;;;26.01;45.33;94623.72;4991980;28;7280;-63
2022/12/26 14:45:49;;;;;;;;;;;;;;;25.93;45.50;94625.47;4991355;28;7409;-63
2022/12/26 14:48:15;;;;;;;;;;;;;;;25.97;45.46;94604.69;4912798;29;7400;-64
2022/12/26 14:51:18;;;;;;;;;;;;;;;25.95;44.78;94612.69;4892812;29;8673;-63
2022/12/26 14:54:10;;;;;;;;;;;;;;;25.99;45.70;94617.97;4858204;29;7147;-64
2022/12/26 14:56:39;;;;;;;;;;;;;;;26.00;44.98;94600.91;4869553;29;7144;-64
2022/12/26 14:59:31;;;;;;;;;;;;;;;25.93;44.79;94608.94;4859832;29;7277;-63
2022/12/26 15:02:33;;;;;;;;;;;;;;;25.91;45.75;94605.97;4848688;29;7273;-63
2022/12/26 15:05:24;;;;;;;;;;;;;;;25.88;45.86;94607.72;4778085;30;8991;-64
2022/12/26 15:08:04;;;;;;;;;;;;;;;25.87;45.93;94617.25;4787198;29;9061;-64
2022/12/26 15:10:55;;;;;;;;;;;;;;;25.88;45.69;94610.47;4796006;29;8813;-60
2022/12/26 15:14:05;;;;;;;;;;;;;;;25.87;45.45;94606.22;4785962;29;7226;-63
2022/12/26 15:16:31;;;;;;;;;;;;;;;25.88;46.03;94623.53;4786605;29;7395;-64
2022/12/26 15:19:15;;;;;;;;;;;;;;;25.89;46.13;94616.75;4843991;29;8329;-63
2022/12/26 15:21:42;;;;;;;;;;;;;;;25.90;45.63;94621.72;4880097;29;7311;-63
2022/12/26 15:24:49;;;;;;;;;;;;;;;25.91;46.17;94636.28;4893449;29;7045;-63
2022/12/26 15:27:48;;;;;;;;;;;;;;;25.92;45.76;94654.31;4872648;29;7030;-64
2022/12/26 15:30:46;;;;;;;;;;;;;;;25.92;46.22;94627.50;4909878;29;7548;-64
2022/12/26 15:33:51;;;;;;;;;;;;;;;25.92;45.20;94640.53;4906521;29;7107;-63
2022/12/26 15:36:55;;;;;;;;;;;;;;;25.94;45.89;94649.03;4910870;29;7120;-63
2022/12/26 15:40:10;;;;;;;;;;;;;;;25.96;45.88;94660.31;4904885;29;8434;-63
2022/12/26 15:42:58;;;;;;;;;;;;;;;25.96;44.74;94680.38;4928740;29;7183;-62
2022/12/26 15:45:48;;;;;;;;;;;;;;;25.98;45.87;94699.91;4933340;29;9097;-63
2022/12/26 15:48:53;;;;;;;;;;;;;;;25.97;44.64;94692.88;4926911;29;7344;-63
2022/12/26 15:51:49;;;;;;;;;;;;;;;26.00;45.62;94713.16;4913055;29;8622;-60
2022/12/26 15:54:25;;;;;;;;;;;;;;;25.99;44.88;94715.16;4896676;29;7046;-64
2022/12/26 15:57:16;;;;;;;;;;;;;;;25.97;45.38;94731.47;4901557;29;7192;-63
2022/12/26 16:00:03;;;;;;;;;;;;;;;25.96;45.37;94729.22;4903226;29;8878;-63
2022/12/26 16:02:55;;;;;;;;;;;;;;;25.95;45.00;94725.69;4901169;29;7091;-61
2022/12/26 16:05:32;;;;;;;;;;;;;;;25.96;45.11;94721.69;4891895;29;7191;-62
2022/12/26 16:08:36;;;;;;;;;;;;;;;25.96;45.37;94720.94;4892927;29;6911;-63
2022/12/26 16:11:24;;;;;;;;;;;;;;;25.94;45.53;94702.16;4907710;29;8346;-63
2022/12/26 16:14:02;;;;;;;;;;;;;;;25.91;44.98;94683.88;4898201;29;9328;-62
2022/12/26 16:16:36;;;;;;;;;;;;;;;25.91;44.73;94692.16;4892696;29;9510;-63